sensor_id;sensor_type;location;lat;lon;timestamp;pressure;altitude;pressure_sealevel;temperature
25985;BMP280;66753;53.848;10.658;2023-05-10T00:06:16;100824.59;;;14.59
25985;BMP280;66753;53.848;10.658;2023-05-10T00:21:16;100813.31;;;14.43
25985;BMP280;66753;53.848;10.658;2023-05-10T00:36:17;100796.34;;;14.29
25985;BMP280;66753;53.848;10.658;2023-05-10T00:51:17;100789.63;;;14.16
25985;BMP280;66753;53.848;10.658;2023-05-10T01:06:18;100771.50;;;14.02
25985;BMP280;66753;53.848;10.658;2023-05-10T01:36:32;100752.91;;;13.83
25985;BMP280;66753;53.848;10.658;2023-05-10T01:51:40;100764.91;;;13.74
25985;BMP280;66753;53.848;10.658;2023-05-10T02:06:42;100755.97;;;13.63
25985;BMP280;66753;53.848;10.658;2023-05-10T02:21:44;100755.84;;;13.56
25985;BMP280;66753;53.848;10.658;2023-05-10T02:36:45;100755.97;;;13.44
25985;BMP280;66753;53.848;10.658;2023-05-10T02:51:53;100758.75;;;13.28
25985;BMP280;66753;53.848;10.658;2023-05-10T03:06:55;100758.13;;;13.16
25985;BMP280;66753;53.848;10.658;2023-05-10T03:21:59;100766.72;;;13.09
25985;BMP280;66753;53.848;10.658;2023-05-10T03:37:02;100759.28;;;12.99
25985;BMP280;66753;53.848;10.658;2023-05-10T03:52:03;100760.41;;;12.98
25985;BMP280;66753;53.848;10.658;2023-05-10T04:07:03;100757.69;;;13.14
25985;BMP280;66753;53.848;10.658;2023-05-10T04:22:04;100747.47;;;13.35
25985;BMP280;66753;53.848;10.658;2023-05-10T04:37:04;100779.28;;;13.69
25985;BMP280;66753;53.848;10.658;2023-05-10T04:52:04;100778.31;;;14.00
25985;BMP280;66753;53.848;10.658;2023-05-10T05:07:05;100788.00;;;14.34
25985;BMP280;66753;53.848;10.658;2023-05-10T05:22:06;100792.94;;;14.58
25985;BMP280;66753;53.848;10.658;2023-05-10T05:37:12;100792.66;;;14.89
25985;BMP280;66753;53.848;10.658;2023-05-10T05:52:13;100810.38;;;15.37
25985;BMP280;66753;53.848;10.658;2023-05-10T06:07:13;100815.19;;;15.97
25985;BMP280;66753;53.848;10.658;2023-05-10T06:22:14;100829.63;;;16.90
25985;BMP280;66753;53.848;10.658;2023-05-10T06:37:15;100837.50;;;17.58
25985;BMP280;66753;53.848;10.658;2023-05-10T06:52:16;100868.91;;;18.66
25985;BMP280;66753;53.848;10.658;2023-05-10T07:07:16;100859.63;;;19.63
25985;BMP280;66753;53.848;10.658;2023-05-10T07:22:17;100859.81;;;19.90
25985;BMP280;66753;53.848;10.658;2023-05-10T07:37:17;100876.88;;;20.57
25985;BMP280;66753;53.848;10.658;2023-05-10T07:52:18;100888.41;;;21.74
25985;BMP280;66753;53.848;10.658;2023-05-10T08:07:19;100904.81;;;22.29
25985;BMP280;66753;53.848;10.658;2023-05-10T08:22:20;100891.31;;;22.29
25985;BMP280;66753;53.848;10.658;2023-05-10T08:37:23;100912.41;;;23.12
25985;BMP280;66753;53.848;10.658;2023-05-10T08:52:24;100931.09;;;23.90
25985;BMP280;66753;53.848;10.658;2023-05-10T09:07:26;100943.97;;;24.30
25985;BMP280;66753;53.848;10.658;2023-05-10T09:22:27;100944.97;;;24.65
25985;BMP280;66753;53.848;10.658;2023-05-10T09:37:29;100954.34;;;24.48
25985;BMP280;66753;53.848;10.658;2023-05-10T09:52:30;100960.69;;;24.70
25985;BMP280;66753;53.848;10.658;2023-05-10T10:07:45;100967.50;;;25.02
25985;BMP280;66753;53.848;10.658;2023-05-10T10:22:46;100984.44;;;25.81
25985;BMP280;66753;53.848;10.658;2023-05-10T10:37:50;100992.91;;;25.71
25985;BMP280;66753;53.848;10.658;2023-05-10T10:52:50;100994.03;;;25.95
25985;BMP280;66753;53.848;10.658;2023-05-10T11:07:57;101009.84;;;26.55
25985;BMP280;66753;53.848;10.658;2023-05-10T11:23:10;101017.78;;;26.28
25985;BMP280;66753;53.848;10.658;2023-05-10T11:38:12;101030.56;;;26.83
25985;BMP280;66753;53.848;10.658;2023-05-10T11:53:12;101039.88;;;27.25
25985;BMP280;66753;53.848;10.658;2023-05-10T12:08:15;101042.66;;;25.80
25985;BMP280;66753;53.848;10.658;2023-05-10T12:23:15;101046.78;;;25.22
25985;BMP280;66753;53.848;10.658;2023-05-10T12:38:29;101094.03;;;24.04
25985;BMP280;66753;53.848;10.658;2023-05-10T12:53:31;101112.88;;;22.26
25985;BMP280;66753;53.848;10.658;2023-05-10T13:08:32;101146.75;;;20.93
25985;BMP280;66753;53.848;10.658;2023-05-10T13:23:34;101157.28;;;20.12
25985;BMP280;66753;53.848;10.658;2023-05-10T13:38:34;101179.63;;;20.02
25985;BMP280;66753;53.848;10.658;2023-05-10T13:53:35;101187.31;;;19.96
25985;BMP280;66753;53.848;10.658;2023-05-10T14:08:35;101185.47;;;19.72
25985;BMP280;66753;53.848;10.658;2023-05-10T14:23:35;101204.59;;;20.09
25985;BMP280;66753;53.848;10.658;2023-05-10T14:38:36;101196.53;;;20.02
25985;BMP280;66753;53.848;10.658;2023-05-10T14:53:36;101212.56;;;20.34
25985;BMP280;66753;53.848;10.658;2023-05-10T15:08:37;101217.31;;;20.84
25985;BMP280;66753;53.848;10.658;2023-05-10T15:23:37;101216.38;;;21.08
25985;BMP280;66753;53.848;10.658;2023-05-10T15:38:38;101224.66;;;21.28
25985;BMP280;66753;53.848;10.658;2023-05-10T15:53:38;101230.88;;;21.21
25985;BMP280;66753;53.848;10.658;2023-05-10T16:08:39;101249.41;;;21.19
25985;BMP280;66753;53.848;10.658;2023-05-10T16:23:40;101265.19;;;21.21
25985;BMP280;66753;53.848;10.658;2023-05-10T16:38:40;101267.25;;;20.99
25985;BMP280;66753;53.848;10.658;2023-05-10T16:53:41;101283.09;;;20.94
25985;BMP280;66753;53.848;10.658;2023-05-10T17:08:43;101288.41;;;21.04
25985;BMP280;66753;53.848;10.658;2023-05-10T17:23:44;101291.63;;;20.85
25985;BMP280;66753;53.848;10.658;2023-05-10T17:38:44;101308.47;;;21.00
25985;BMP280;66753;53.848;10.658;2023-05-10T17:53:45;101317.06;;;20.77
25985;BMP280;66753;53.848;10.658;2023-05-10T18:08:46;101302.22;;;20.41
25985;BMP280;66753;53.848;10.658;2023-05-10T18:23:47;101312.66;;;20.04
25985;BMP280;66753;53.848;10.658;2023-05-10T18:38:47;101317.69;;;19.50
25985;BMP280;66753;53.848;10.658;2023-05-10T18:53:47;101319.50;;;19.11
25985;BMP280;66753;53.848;10.658;2023-05-10T19:08:49;101340.47;;;18.71
25985;BMP280;66753;53.848;10.658;2023-05-10T19:23:49;101359.94;;;18.57
25985;BMP280;66753;53.848;10.658;2023-05-10T19:38:49;101367.25;;;18.06
25985;BMP280;66753;53.848;10.658;2023-05-10T19:53:50;101393.75;;;17.68
25985;BMP280;66753;53.848;10.658;2023-05-10T20:08:50;101434.66;;;17.32
25985;BMP280;66753;53.848;10.658;2023-05-10T20:23:51;101433.53;;;17.07
25985;BMP280;66753;53.848;10.658;2023-05-10T20:38:51;101428.25;;;16.58
25985;BMP280;66753;53.848;10.658;2023-05-10T20:53:52;101448.66;;;16.44
25985;BMP280;66753;53.848;10.658;2023-05-10T21:08:52;101453.28;;;16.24
25985;BMP280;66753;53.848;10.658;2023-05-10T21:23:53;101455.06;;;16.17
25985;BMP280;66753;53.848;10.658;2023-05-10T21:38:53;101469.72;;;16.04
25985;BMP280;66753;53.848;10.658;2023-05-10T21:53:54;101463.53;;;16.00
25985;BMP280;66753;53.848;10.658;2023-05-10T22:08:54;101470.00;;;15.99
25985;BMP280;66753;53.848;10.658;2023-05-10T22:23:55;101461.22;;;16.21
25985;BMP280;66753;53.848;10.658;2023-05-10T22:38:55;101473.63;;;16.29
25985;BMP280;66753;53.848;10.658;2023-05-10T22:53:55;101478.00;;;16.18
25985;BMP280;66753;53.848;10.658;2023-05-10T23:08:56;101495.19;;;16.17
25985;BMP280;66753;53.848;10.658;2023-05-10T23:23:56;101517.44;;;16.02
25985;BMP280;66753;53.848;10.658;2023-05-10T23:38:57;101515.06;;;15.97
25985;BMP280;66753;53.848;10.658;2023-05-10T23:53:57;101528.25;;;15.90
